• Join FlightAware (Why Join?)
  • Login
  • US Flag 
09:54AM EDT


 

Airport Tracker/Info


-or-


 

Live Flight TrackerFlight Track Log ✈ N100WX ✈ 12-May-2013 ✈ KHPN - KBED

Flight Track Log - Related Links

Times and Time Zones

All times are in EDT time to prevent confusion due to time zone crossing. See the N100WX flight status page for this flight to view local times or setup timezone preferences in your user account.

Time Position Orientation Groundspeed Altitude Reporting Facility
EDT Latitude Longitude Course Direction KTS MPH feet Rate Location/Type
04:56PM 41.0833 -73.5333 48° Northeast 413 475 17,500  Level New York TRACON
04:58PM 41.2531 -73.2794 48° Northeast 428 493 17,500  Level Boston Center
04:59PM 41.3353 -73.1450 51° Northeast 418 481 17,600  Climbing Boston Center
05:00PM 41.4089 -73.0186 52° Northeast 423 487 17,600  Level Boston Center
05:01PM 41.4803 -72.8972 52° Northeast 418 481 17,600  Level Boston Center
05:02PM 41.5539 -72.7703 52° Northeast 418 481 17,600 -60 Level Boston Center
05:03PM 41.6228 -72.6456 54° Northeast 418 481 17,500  Descending Boston Center
05:04PM 41.6958 -72.5181 52° Northeast 418 481 17,600  Climbing Boston Center
05:05PM 41.7689 -72.3900 53° Northeast 418 481 17,600 -60 Level Boston Center
05:06PM 41.8417 -72.2672 51° Northeast 424 488 17,500 -120 Descending Boston Center
05:07PM 41.9081 -72.1444 54° Northeast 409 471 17,400 -120 Descending Boston Center
05:08PM 41.9661 -72.0464 51° Northeast 370 426 17,300 -1,320 Descending Boston Center
05:09PM 42.0242 -71.9428 53° Northeast 344 396 14,800 -2,220 Descending Boston Center
05:10PM 42.0800 -71.8442 53° Northeast 351 404 12,900 -1,860 Descending Boston Center
05:11PM 42.1272 -71.7292 61° Northeast 337 388 11,100 -1,740 Descending Boston Center
05:12PM 42.1767 -71.6472 51° Northeast 310 357 9,500 -1,500 Descending Boston Center
05:13PM 42.2325 -71.5681 46° Northeast 297 342 8,100 -1,560 Descending Boston Center
05:14PM 42.2858 -71.4719 53° Northeast 291 335 6,400 -1,740 Descending Boston Center
05:15PM 42.3372 -71.3842 52° Northeast 296 341 4,700 -1,620 Descending Boston Center
05:16PM 42.3742 -71.3217 51° Northeast 279 321 3,200 -900 Descending Boston Center
05:17PM 42.3919 -71.2342 75° East 208 239 3,000 -420 Descending Boston Center
05:18PM 42.4206 -71.1942 46° Northeast 157 181 2,400 -720 Descending Boston Center
05:19PM 42.4539 -71.1906 North 117 135 1,600 -600 Descending Boston Center
05:20PM 42.4708 -71.2158 312° West 98 113 1,300 -120 Descending Boston Center
05:21PM 42.4461 -71.2247 195° South 96 110 1,400  Climbing Boston Center
05:22PM 42.4625 -71.1989 49° Northeast 55 63 1,300 -360 Descending Boston Center
05:23PM 42.4669 -71.2383 279° West 78 90 700 -480 Descending Boston Center
05:24PM 42.4714 -71.2692 281° West 85 98 400 1,380 Descending Boston Center
05:25PM 42.4781 -71.3028 285° West 85 98 3,500 3,060 Climbing Boston Center
05:27PM 42.4667 -71.2833 51° Northeast  Level FlightAware Approximate